Time;durP1;ratioP1;P1;durP2;ratioP2;P2;SDS_P1;SDS_P2;PMS_P1;PMS_P2;Temp;Humidity;BMP_temperature;BMP_pressure;BME280_temperature;BME280_humidity;BME280_pressure;Samples;Min_cycle;Max_cycle;Signal;HPM_P1;HPM_P2
2023/05/06 00:00:41;;;;;;;;;0.00;0.00;;;;;18.23;70.54;-19695.66;4997344;28;45460;-82
2023/05/06 00:03:08;;;;;;;;;0.00;0.00;;;;;18.27;70.70;-19696.59;4997523;28;47322;-83
2023/05/06 00:05:34;;;;;;;;;2.00;0.00;;;;;18.17;70.49;-19694.06;4997481;28;45495;-83
2023/05/06 00:08:00;;;;;;;;;0.00;0.00;;;;;17.99;70.22;-19689.25;4997570;28;45522;-83
2023/05/06 00:10:25;;;;;;;;;0.00;0.00;;;;;18.22;70.75;-19695.28;4978782;28;45529;-83
2023/05/06 00:12:50;;;;;;;;;0.00;0.00;;;;;18.20;70.69;-19694.88;4977615;28;46232;-83
2023/05/06 00:15:16;;;;;;;;;0.33;0.33;;;;;17.96;70.78;-19688.44;4977378;28;45522;-83
2023/05/06 00:17:41;;;;;;;;;0.00;0.00;;;;;17.98;70.74;-19688.97;4977505;28;45448;-83
2023/05/06 00:20:08;;;;;;;;;0.00;0.00;;;;;18.12;70.61;-19692.72;4977826;28;45433;-83
2023/05/06 00:22:33;;;;;;;;;0.00;0.00;;;;;18.00;70.68;-19689.53;4995496;28;46636;-82
2023/05/06 00:24:59;;;;;;;;;0.00;0.00;;;;;18.11;70.51;-19692.59;4996852;28;49360;-83
2023/05/06 00:27:24;;;;;;;;;0.00;0.00;;;;;18.11;70.50;-19692.47;4985363;28;45424;-83
2023/05/06 00:29:50;;;;;;;;;0.00;0.00;;;;;18.08;70.81;-19691.78;4977501;28;45470;-83
2023/05/06 00:32:15;;;;;;;;;0.00;0.00;;;;;17.92;70.80;-19687.66;4977161;28;45885;-83
2023/05/06 00:34:41;;;;;;;;;0.00;0.00;;;;;18.07;70.63;-19691.41;4976440;28;45418;-83
2023/05/06 00:37:07;;;;;;;;;0.00;0.00;;;;;18.04;70.72;-19690.72;4993207;28;49270;-83
2023/05/06 00:39:33;;;;;;;;;0.33;0.33;;;;;18.04;70.51;-19690.59;4979380;28;45616;-84
2023/05/06 00:42:01;;;;;;;;;0.00;0.00;;;;;18.03;70.82;-19690.47;4996571;28;47149;-83
2023/05/06 00:44:27;;;;;;;;;0.00;0.00;;;;;17.77;70.74;-19683.63;4996234;28;45569;-82
2023/05/06 00:46:52;;;;;;;;;0.00;0.00;;;;;18.01;70.83;-19689.94;4982549;28;45736;-82
2023/05/06 00:49:19;;;;;;;;;1.00;1.00;;;;;18.00;70.67;-19689.53;4977301;28;45423;-83
2023/05/06 00:51:44;;;;;;;;;1.00;1.00;;;;;18.00;70.81;-19689.53;4976753;28;46627;-82
2023/05/06 00:54:10;;;;;;;;;0.00;0.00;;;;;18.00;71.28;-19689.53;4976837;28;45829;-83
2023/05/06 00:56:36;;;;;;;;;0.33;0.00;;;;;17.80;71.20;-19684.31;4988002;28;45527;-83
2023/05/06 00:59:01;;;;;;;;;0.67;0.67;;;;;17.97;71.18;-19688.84;4996371;28;45423;-82
2023/05/06 05:01:12;;;;;;;;;1.00;1.00;;;;;16.85;76.46;-19659.69;5531081;23;45812;-81
2023/05/06 05:03:38;;;;;;;;;1.00;1.00;;;;;17.19;76.56;-19668.38;4976559;28;47058;-82
2023/05/06 05:06:03;;;;;;;;;2.67;2.00;;;;;17.33;76.93;-19672.13;4976569;28;45344;-82
2023/05/06 05:08:29;;;;;;;;;2.67;1.33;;;;;17.21;76.72;-19669.06;4975333;28;45642;-81
2023/05/06 05:10:54;;;;;;;;;0.33;0.33;;;;;17.16;76.77;-19667.72;4977065;28;45293;-81
2023/05/06 05:13:20;;;;;;;;;4.00;2.67;;;;;17.34;76.75;-19672.25;4976539;28;46497;-81
2023/05/06 05:15:45;;;;;;;;;2.00;2.00;;;;;17.21;76.53;-19668.91;4976631;28;45505;-82
2023/05/06 05:18:11;;;;;;;;;2.00;2.00;;;;;17.38;76.14;-19673.34;4980261;28;45772;-81
2023/05/06 05:20:36;;;;;;;;;1.00;1.00;;;;;17.35;76.17;-19672.66;4977781;28;45874;-82
2023/05/06 05:23:01;;;;;;;;;1.00;1.00;;;;;17.22;76.53;-19669.19;4996072;28;46813;-81
2023/05/06 05:25:27;;;;;;;;;3.00;2.00;;;;;17.41;76.30;-19674.28;4988084;28;45584;-82
2023/05/06 05:27:52;;;;;;;;;1.67;1.67;;;;;17.43;76.09;-19674.66;4976613;28;45498;-82
2023/05/06 05:30:18;;;;;;;;;5.00;2.00;;;;;17.45;76.23;-19675.22;4976017;28;48005;-81
2023/05/06 05:32:43;;;;;;;;;2.00;2.00;;;;;17.43;76.16;-19674.81;4976308;28;46361;-81
2023/05/06 05:35:09;;;;;;;;;1.00;1.00;;;;;17.47;76.03;-19675.88;4976376;28;45491;-82
2023/05/06 05:37:34;;;;;;;;;2.33;1.00;;;;;17.34;76.06;-19672.25;4991210;28;45455;-81
2023/05/06 05:40:00;;;;;;;;;4.00;2.00;;;;;17.39;76.34;-19673.59;4994478;28;45542;-81
2023/05/06 05:42:25;;;;;;;;;1.67;1.00;;;;;17.34;76.39;-19672.41;4984837;28;46258;-82
2023/05/06 05:44:50;;;;;;;;;2.33;2.00;;;;;17.39;76.02;-19673.59;4976133;28;45408;-82
2023/05/06 05:47:16;;;;;;;;;1.67;1.00;;;;;17.51;76.15;-19676.94;4976002;28;45376;-81
2023/05/06 05:49:41;;;;;;;;;1.00;1.00;;;;;17.30;76.20;-19671.47;4976179;28;45372;-82
2023/05/06 05:52:07;;;;;;;;;2.00;1.00;;;;;17.46;76.38;-19675.59;4981862;28;45384;-82
2023/05/06 05:54:33;;;;;;;;;1.00;1.00;;;;;17.50;76.07;-19676.53;4995558;28;45457;-82
2023/05/06 05:56:58;;;;;;;;;1.00;1.00;;;;;17.61;75.96;-19679.34;4995733;28;45387;-82
2023/05/06 05:59:24;;;;;;;;;1.00;1.00;;;;;17.63;76.25;-19679.88;4996135;28;45704;-83
2023/05/06 06:01:49;;;;;;;;;2.67;1.67;;;;;17.57;75.76;-19678.28;4985655;28;46199;-82
2023/05/06 06:04:15;;;;;;;;;1.00;1.00;;;;;17.39;75.81;-19673.72;4975295;28;46622;-81
2023/05/06 06:06:40;;;;;;;;;3.00;1.00;;;;;17.63;75.85;-19679.88;4975805;28;45460;-82
2023/05/06 06:09:06;;;;;;;;;1.00;1.00;;;;;17.56;75.51;-19678.16;4965777;28;45500;-82
2023/05/06 06:11:32;;;;;;;;;0.67;0.67;;;;;17.68;75.62;-19681.34;4977609;28;47267;-82
2023/05/06 06:13:57;;;;;;;;;2.00;1.00;;;;;17.59;75.75;-19678.94;4995424;28;45443;-82
2023/05/06 06:16:22;;;;;;;;;1.00;1.00;;;;;17.69;75.42;-19681.63;4994873;28;56279;-82
2023/05/06 06:18:48;;;;;;;;;1.00;1.00;;;;;17.65;75.60;-19680.56;4976107;28;45529;-82
2023/05/06 06:21:13;;;;;;;;;1.00;1.00;;;;;17.68;75.16;-19681.34;4977580;28;46201;-82
2023/05/06 06:23:38;;;;;;;;;2.00;1.00;;;;;17.58;75.18;-19678.69;4995165;28;45424;-82
2023/05/06 06:26:04;;;;;;;;;1.00;1.00;;;;;17.60;75.10;-19679.22;4994657;28;45432;-82
2023/05/06 06:28:30;;;;;;;;;0.67;0.67;;;;;17.52;74.79;-19677.06;4995260;28;45510;-82
2023/05/06 06:30:55;;;;;;;;;1.00;1.00;;;;;17.86;74.74;-19686.03;4995095;28;45716;-82
2023/05/06 06:33:20;;;;;;;;;2.00;1.00;;;;;17.72;74.50;-19682.44;4977117;28;45532;-82
2023/05/06 06:35:46;;;;;;;;;1.67;1.67;;;;;17.67;74.49;-19681.09;4978968;28;45649;-82
2023/05/06 06:38:11;;;;;;;;;3.00;1.00;;;;;17.84;73.79;-19685.50;4979370;28;45476;-82
2023/05/06 06:40:36;;;;;;;;;4.00;1.00;;;;;17.96;74.34;-19688.44;4977982;28;63102;-82
2023/05/06 06:43:02;;;;;;;;;1.00;1.00;;;;;17.84;73.93;-19685.50;4992399;28;60343;-82
2023/05/06 06:45:27;;;;;;;;;1.00;1.00;;;;;18.05;73.82;-19690.84;4998496;28;45435;-82
2023/05/06 06:47:52;;;;;;;;;1.00;1.00;;;;;18.02;73.32;-19690.19;4998569;28;45442;-82
2023/05/06 06:50:18;;;;;;;;;3.00;0.00;;;;;18.17;73.23;-19694.06;4981844;28;49899;-83
2023/05/06 06:52:43;;;;;;;;;1.00;1.00;;;;;18.19;73.34;-19694.59;4990829;28;45464;-82
2023/05/06 06:55:09;;;;;;;;;0.00;0.00;;;;;18.20;73.30;-19694.75;4992461;28;45384;-82
2023/05/06 06:57:36;;;;;;;;;2.00;0.33;;;;;18.20;72.92;-19694.88;4979038;28;45646;-82
2023/05/06 07:00:01;;;;;;;;;1.00;1.00;;;;;18.20;72.66;-19694.75;4978944;28;46121;-82
2023/05/06 07:02:26;;;;;;;;;1.00;1.00;;;;;18.37;72.78;-19699.16;4977967;28;45901;-82
2023/05/06 07:04:52;;;;;;;;;1.00;1.00;;;;;18.41;72.16;-19700.34;4979744;28;45517;-82
2023/05/06 07:07:18;;;;;;;;;1.00;1.00;;;;;18.45;72.82;-19701.28;4978757;28;45570;-82
2023/05/06 07:09:43;;;;;;;;;1.33;0.33;;;;;18.47;72.35;-19701.97;4978325;28;46068;-82
2023/05/06 07:12:09;;;;;;;;;2.00;1.00;;;;;18.56;72.55;-19704.34;4985436;28;45584;-82
2023/05/06 07:14:34;;;;;;;;;2.00;1.00;;;;;18.49;72.41;-19702.34;4983627;28;49014;-82
2023/05/06 07:16:59;;;;;;;;;1.00;1.00;;;;;18.45;72.46;-19701.28;4997172;28;45499;-83
2023/05/06 07:19:26;;;;;;;;;1.00;1.00;;;;;18.64;72.10;-19706.38;4997912;28;46458;-82
2023/05/06 07:21:51;;;;;;;;;1.00;1.00;;;;;18.61;71.69;-19705.56;4997827;28;45477;-82
2023/05/06 07:24:16;;;;;;;;;1.00;1.00;;;;;18.63;72.20;-19705.97;4993246;28;45576;-82
2023/05/06 07:26:42;;;;;;;;;1.67;1.67;;;;;18.71;71.99;-19708.22;4960885;28;45490;-81
2023/05/06 07:29:08;;;;;;;;;2.33;2.00;;;;;18.74;72.06;-19709.03;4977845;28;47296;-80
2023/05/06 07:31:33;;;;;;;;;2.33;2.33;;;;;18.77;72.14;-19709.72;4977990;28;45771;-79
2023/05/06 07:33:59;;;;;;;;;1.33;1.33;;;;;18.57;71.95;-19704.50;4979950;28;45762;-87
2023/05/06 07:36:25;;;;;;;;;2.00;2.00;;;;;18.84;72.14;-19711.56;4981008;28;45506;-90
2023/05/06 07:38:51;;;;;;;;;2.00;2.00;;;;;18.80;72.04;-19710.38;4990467;28;46131;-89
2023/05/06 07:41:16;;;;;;;;;2.33;1.00;;;;;18.86;72.06;-19712.09;4976833;28;45469;-87
2023/05/06 07:43:42;;;;;;;;;0.00;0.00;;;;;18.92;71.96;-19713.72;4976678;28;45496;-87
2023/05/06 07:46:07;;;;;;;;;2.00;2.00;;;;;18.93;72.12;-19713.84;4971523;28;45487;-82
2023/05/06 07:48:33;;;;;;;;;1.00;1.00;;;;;18.85;72.10;-19711.72;4967409;28;45936;-84
2023/05/06 07:50:59;;;;;;;;;1.00;1.00;;;;;19.02;71.94;-19716.25;4977891;28;45729;-83
2023/05/06 07:53:25;;;;;;;;;3.00;1.00;;;;;19.07;71.67;-19717.44;4961391;28;45438;-82
2023/05/06 07:55:51;;;;;;;;;2.00;2.00;;;;;19.11;71.47;-19718.66;4989566;28;45464;-86
2023/05/06 07:58:20;;;;;;;;;2.00;2.00;;;;;19.16;71.39;-19719.84;4976685;28;45657;-83
2023/05/06 08:00:45;;;;;;;;;3.33;1.67;;;;;19.11;71.32;-19718.53;4976962;28;45392;-86
2023/05/06 08:03:10;;;;;;;;;3.33;2.00;;;;;19.25;70.96;-19722.25;4977397;28;45372;-85
2023/05/06 08:05:36;;;;;;;;;2.00;2.00;;;;;19.19;71.54;-19720.66;4988760;28;45471;-85
2023/05/06 08:08:01;;;;;;;;;1.33;1.33;;;;;19.29;70.99;-19723.19;4979092;28;47368;-83
2023/05/06 08:10:26;;;;;;;;;1.33;1.33;;;;;19.36;71.39;-19725.06;4971737;28;45428;-84
2023/05/06 08:12:52;;;;;;;;;3.00;3.00;;;;;19.39;71.35;-19725.88;4963389;28;45640;-84
2023/05/06 08:15:17;;;;;;;;;2.00;2.00;;;;;19.51;70.85;-19729.06;4973657;28;45512;-83
2023/05/06 08:17:43;;;;;;;;;2.67;2.67;;;;;19.30;71.29;-19723.59;4976008;28;46458;-83
2023/05/06 08:20:09;;;;;;;;;2.33;2.33;;;;;19.57;70.77;-19730.66;4981203;28;45490;-83
2023/05/06 08:22:35;;;;;;;;;2.67;2.67;;;;;19.60;71.15;-19731.47;4979095;28;45844;-84
2023/05/06 08:25:00;;;;;;;;;1.00;1.00;;;;;19.63;71.18;-19732.00;4974847;28;45499;-86
2023/05/06 08:27:26;;;;;;;;;2.33;1.00;;;;;19.53;70.81;-19729.47;4970000;28;46112;-86
2023/05/06 08:29:51;;;;;;;;;1.00;1.00;;;;;19.66;70.90;-19732.81;4976116;28;45650;-85
2023/05/06 08:32:17;;;;;;;;;2.67;2.00;;;;;19.50;70.32;-19728.81;4982418;28;45348;-88
2023/05/06 08:34:42;;;;;;;;;1.00;1.00;;;;;19.66;71.08;-19732.81;4979104;28;45522;-87
2023/05/06 08:37:07;;;;;;;;;2.00;2.00;;;;;19.82;71.05;-19737.22;4975863;28;47447;-85
2023/05/06 08:39:33;;;;;;;;;3.00;3.00;;;;;19.77;70.24;-19735.75;4974531;28;51239;-95
2023/05/06 08:42:00;;;;;;;;;2.00;2.00;;;;;20.12;69.97;-19744.94;4981804;28;45514;-84
2023/05/06 08:44:26;;;;;;;;;3.33;2.00;;;;;20.12;69.59;-19744.81;4981439;28;45628;-84
2023/05/06 08:46:52;;;;;;;;;3.00;2.00;;;;;20.22;68.74;-19747.59;4983701;28;46519;-85
2023/05/06 08:49:17;;;;;;;;;3.33;2.33;;;;;20.37;68.57;-19751.34;4980088;28;45712;-86
2023/05/06 08:51:43;;;;;;;;;1.33;1.33;;;;;20.47;68.96;-19753.88;4983176;28;45816;-85
2023/05/06 08:54:12;;;;;;;;;2.00;1.00;;;;;20.43;68.30;-19752.94;4959677;28;45448;-85
2023/05/06 08:56:42;;;;;;;;;1.33;1.33;;;;;20.39;67.50;-19752.00;4974822;28;45420;-85
2023/05/06 08:59:08;;;;;;;;;1.00;1.00;;;;;20.47;67.45;-19753.88;4976155;28;45432;-84
2023/05/06 09:01:34;;;;;;;;;1.00;1.00;;;;;20.49;68.09;-19754.41;4974772;28;45594;-84
2023/05/06 09:04:02;;;;;;;;;0.67;0.67;;;;;20.30;67.37;-19749.47;4979309;28;45604;-92
2023/05/06 09:06:28;;;;;;;;;1.00;1.00;;;;;20.35;67.22;-19750.94;4974732;28;46315;-87
2023/05/06 09:08:53;;;;;;;;;1.00;1.00;;;;;20.44;67.26;-19753.22;4975039;28;45735;-88
2023/05/06 09:11:27;;;;;;;;;1.00;1.00;;;;;20.50;67.17;-19754.69;4974677;28;45513;-87
2023/05/06 09:14:12;;;;;;;;;1.00;1.00;;;;;20.52;67.59;-19755.34;4983442;28;45419;-87
2023/05/06 09:16:41;;;;;;;;;3.33;2.33;;;;;20.53;66.57;-19755.59;4966614;28;46378;-87
2023/05/06 09:19:06;;;;;;;;;0.00;0.00;;;;;20.55;66.87;-19756.13;4961398;28;45370;-88
2023/05/06 09:21:37;;;;;;;;;1.33;1.33;;;;;20.57;66.89;-19756.69;4981564;28;45386;-87
2023/05/06 09:24:04;;;;;;;;;1.33;1.33;;;;;20.58;66.62;-19756.94;4974386;28;45349;-87
2023/05/06 09:26:30;;;;;;;;;1.67;1.67;;;;;20.60;66.95;-19757.34;4975243;28;45749;-87
2023/05/06 09:28:57;;;;;;;;;3.00;1.00;;;;;20.60;66.86;-19757.47;4975252;28;45349;-87
2023/05/06 09:31:24;;;;;;;;;3.00;2.00;;;;;20.52;66.90;-19755.34;4974320;28;45459;-88
2023/05/06 09:33:50;;;;;;;;;1.67;1.67;;;;;20.48;66.17;-19754.16;4978643;28;45486;-87
2023/05/06 09:36:15;;;;;;;;;3.33;2.00;;;;;20.31;66.02;-19749.75;4974358;28;45553;-86
2023/05/06 09:38:40;;;;;;;;;1.00;0.33;;;;;20.48;65.72;-19754.28;4978079;28;45483;-86
2023/05/06 09:41:07;;;;;;;;;2.00;2.00;;;;;20.49;65.96;-19754.53;4990315;28;45945;-87
2023/05/06 09:43:35;;;;;;;;;1.00;1.00;;;;;20.58;65.87;-19756.81;4975976;28;45424;-89
2023/05/06 09:46:00;;;;;;;;;1.00;1.00;;;;;20.54;66.47;-19755.75;4974111;28;47301;-89
2023/05/06 09:48:30;;;;;;;;;2.00;2.00;;;;;20.59;66.11;-19757.09;4972397;28;45536;-90
2023/05/06 09:50:55;;;;;;;;;1.00;1.00;;;;;20.68;66.31;-19759.34;4975037;28;45493;-88
2023/05/06 09:53:22;;;;;;;;;1.00;1.00;;;;;20.49;66.22;-19754.41;4964877;28;45662;-89
2023/05/06 09:55:49;;;;;;;;;1.00;1.00;;;;;20.77;65.29;-19761.75;4970610;28;47183;-89
2023/05/06 09:58:19;;;;;;;;;2.25;1.50;;;;;20.82;65.55;-19763.22;4974456;28;45491;-88
2023/05/06 10:00:45;;;;;;;;;1.00;1.00;;;;;20.70;64.94;-19760.00;4928163;28;1313064;-89
2023/05/06 10:03:12;;;;;;;;;3.75;1.00;;;;;20.79;64.86;-19762.41;4976369;28;45494;-90
2023/05/06 10:05:38;;;;;;;;;2.00;1.00;;;;;20.91;65.22;-19765.47;4965813;28;45646;-86
2023/05/06 10:08:04;;;;;;;;;2.33;1.00;;;;;20.79;64.33;-19762.41;4980316;28;45531;-86
2023/05/06 10:10:30;;;;;;;;;0.00;0.00;;;;;20.89;64.18;-19764.94;4975029;28;46806;-85
2023/05/06 10:12:55;;;;;;;;;1.00;1.00;;;;;21.16;64.44;-19772.00;4977060;28;46067;-85
2023/05/06 10:15:23;;;;;;;;;1.00;1.00;;;;;21.17;63.88;-19772.28;4985427;28;55318;-86
2023/05/06 10:17:51;;;;;;;;;1.00;1.00;;;;;21.42;63.64;-19778.66;4975478;28;45547;-86
2023/05/06 10:20:20;;;;;;;;;1.00;1.00;;;;;22.04;62.21;-19794.75;4976995;28;45519;-86
2023/05/06 10:23:09;;;;;;;;;1.00;1.00;;;;;21.89;62.21;-19791.03;4976606;28;45490;-86
2023/05/06 10:25:41;;;;;;;;;2.00;1.00;;;;;22.07;61.21;-19795.69;4978248;28;46214;-86
2023/05/06 10:28:11;;;;;;;;;1.00;1.00;;;;;22.59;60.66;-19809.00;4976838;28;45558;-87
2023/05/06 10:30:38;;;;;;;;;1.00;1.00;;;;;23.29;59.91;-19827.19;4977314;28;45753;-87
2023/05/06 10:33:09;;;;;;;;;2.75;2.75;;;;;23.66;59.49;-19836.75;4988590;28;45424;-86
2023/05/06 10:35:46;;;;;;;;;1.25;1.25;;;;;23.81;58.30;-19840.75;4986873;28;45470;-87
2023/05/06 10:38:29;;;;;;;;;1.75;1.00;;;;;24.27;57.44;-19852.53;4978828;28;45642;-88
2023/05/06 10:40:55;;;;;;;;;1.75;0.50;;;;;24.16;57.17;-19849.75;4980702;28;45492;-92
2023/05/06 10:43:29;;;;;;;;;2.00;2.00;;;;;24.44;56.63;-19857.06;4966706;28;45606;-91
2023/05/06 10:46:10;;;;;;;;;0.00;0.00;;;;;23.72;56.07;-19838.34;4983881;28;46357;-91
2023/05/06 10:48:37;;;;;;;;;1.00;1.00;;;;;24.07;56.60;-19847.38;4959022;28;45432;-87
2023/05/06 10:51:24;;;;;;;;;3.00;1.00;;;;;24.06;56.58;-19847.25;4976263;28;45602;-90
2023/05/06 10:54:01;;;;;;;;;1.00;1.00;;;;;23.87;57.13;-19842.19;4979201;28;45605;-91
2023/05/06 10:56:29;;;;;;;;;3.00;2.00;;;;;23.99;56.74;-19845.50;4960675;28;48155;-89
2023/05/06 10:58:55;;;;;;;;;4.75;2.25;;;;;24.04;56.92;-19846.56;4977509;28;45676;-88
2023/05/06 11:01:24;;;;;;;;;1.50;1.25;;;;;23.62;57.16;-19835.69;4985353;28;45447;-90
2023/05/06 11:03:50;;;;;;;;;2.50;2.50;;;;;23.63;57.32;-19835.97;4989385;28;45519;-89
2023/05/06 11:06:35;;;;;;;;;1.50;1.50;;;;;23.80;57.15;-19840.59;4991739;28;48109;-92
2023/05/06 11:09:03;;;;;;;;;0.75;0.75;;;;;23.75;56.70;-19839.16;4983384;28;45480;-93
2023/05/06 11:11:52;;;;;;;;;2.00;1.00;;;;;23.74;56.40;-19839.03;4978935;28;45435;-91
2023/05/06 11:14:35;;;;;;;;;1.50;0.50;;;;;23.67;56.27;-19837.16;4960668;28;45309;-94
2023/05/06 11:17:06;;;;;;;;;1.00;1.00;;;;;23.40;55.00;-19830.13;4980094;28;45527;-89
2023/05/06 11:19:34;;;;;;;;;0.75;0.75;;;;;23.42;55.50;-19830.53;4984018;28;45434;-95
2023/05/06 11:22:01;;;;;;;;;1.50;1.00;;;;;23.65;55.75;-19836.63;4983631;28;45421;-95
2023/05/06 11:24:27;;;;;;;;;1.00;1.00;;;;;24.61;55.36;-19861.44;4969953;28;45448;-90
2023/05/06 11:26:54;;;;;;;;;1.00;1.00;;;;;24.77;53.76;-19863.69;4978307;28;45594;-91
2023/05/06 11:29:20;;;;;;;;;2.00;1.00;;;;;24.78;53.49;-19863.81;4977110;28;45491;-91
2023/05/06 11:31:45;;;;;;;;;1.00;1.00;;;;;24.80;53.70;-19525.91;4979196;28;45557;-89
2023/05/06 11:34:17;;;;;;;;;1.00;1.00;;;;;24.71;53.15;-19185.16;4998131;28;45463;-88
2023/05/06 11:36:52;;;;;;;;;2.00;1.00;;;;;24.58;53.23;-18843.72;4990994;28;45362;-90
2023/05/06 11:39:17;;;;;;;;;1.00;1.00;;;;;24.47;53.26;-18840.88;4970667;28;45414;-90
2023/05/06 11:41:42;;;;;;;;;1.00;1.00;;;;;24.64;53.27;-18506.66;4977820;28;45448;-89
2023/05/06 11:44:08;;;;;;;;;1.00;1.00;;;;;24.66;53.20;-18168.66;4979633;28;45650;-88
2023/05/06 11:46:34;;;;;;;;;0.00;0.00;;;;;24.66;51.92;-17491.47;4985685;28;46283;-90
2023/05/06 11:49:00;;;;;;;;;2.00;0.00;;;;;24.94;51.46;-16820.34;4981053;28;45531;-89
2023/05/06 11:51:26;;;;;;;;;0.25;0.25;;;;;25.00;50.95;-16143.97;4977656;28;45567;-90
2023/05/06 11:54:02;;;;;;;;;0.00;0.00;;;;;25.12;50.33;-15807.28;4985236;28;45387;-91
2023/05/06 11:56:28;;;;;;;;;1.00;1.00;;;;;25.25;50.40;-14792.66;4983807;28;46701;-91
2023/05/06 11:58:53;;;;;;;;;1.00;1.00;;;;;25.18;50.75;-14452.28;4977834;28;56549;-91
2023/05/06 12:01:18;;;;;;;;;0.00;0.00;;;;;25.22;51.50;-15131.19;4979169;28;45461;-90
2023/05/06 12:03:44;;;;;;;;;2.00;1.00;;;;;25.32;51.51;-15472.09;4977974;28;45372;-92
2023/05/06 12:06:09;;;;;;;;;1.25;1.00;;;;;25.54;51.07;-14797.88;4976969;28;46235;-83
2023/05/06 12:08:36;;;;;;;;;1.00;1.00;;;;;25.66;50.25;-14121.25;4972634;28;46493;-87
2023/05/06 12:11:05;;;;;;;;;1.00;1.00;;;;;25.48;49.33;-12760.88;4990035;28;45404;-84
2023/05/06 12:13:33;;;;;;;;;0.00;0.00;;;;;25.55;49.97;-12761.84;4993871;28;45490;-85
2023/05/06 12:16:00;;;;;;;;;1.00;0.00;;;;;25.36;50.58;-12759.06;4969121;28;47210;-84
2023/05/06 12:18:26;;;;;;;;;1.00;1.00;;;;;25.33;50.03;-12079.81;4978602;28;45646;-85
2023/05/06 12:20:53;;;;;;;;;0.50;0.00;;;;;25.31;50.10;-11400.72;4982601;28;45478;-87
2023/05/06 12:23:20;;;;;;;;;2.00;0.00;;;;;25.04;49.69;-10718.75;4974023;28;45555;-85
2023/05/06 12:26:02;;;;;;;;;1.00;1.00;;;;;25.04;49.62;-10039.97;4963625;28;46078;-84
2023/05/06 12:28:28;;;;;;;;;3.00;2.00;;;;;24.79;50.08;-9698.00;4960260;28;45839;-90
2023/05/06 12:30:54;;;;;;;;;0.75;0.75;;;;;24.77;49.92;-9019.19;4975219;28;45558;-90
2023/05/06 12:33:20;;;;;;;;;0.00;0.00;;;;;24.94;50.41;-9699.53;4992074;28;45768;-93
2023/05/06 12:35:45;;;;;;;;;0.25;0.00;;;;;24.67;50.19;-9357.59;4982313;28;45440;-96
2023/05/06 12:38:16;;;;;;;;;0.25;0.25;;;;;24.64;50.15;-9357.34;4954875;28;45541;-92
2023/05/06 12:40:43;;;;;;;;;1.00;1.00;;;;;24.98;49.10;-8681.47;4988218;28;45423;-90
2023/05/06 12:43:10;;;;;;;;;0.75;0.75;;;;;25.01;49.52;-8342.22;4985824;28;45560;-88
2023/05/06 12:45:37;;;;;;;;;1.00;1.00;;;;;24.88;49.20;-7662.16;4989928;28;46290;-89
2023/05/06 12:48:07;;;;;;;;;0.25;0.25;;;;;24.93;49.38;-6983.28;4978414;28;45761;-88
2023/05/06 12:50:36;;;;;;;;;0.00;0.00;;;;;24.84;49.06;-6643.19;4985662;28;45298;-92
2023/05/06 12:53:07;;;;;;;;;2.00;0.75;;;;;24.59;50.12;-6981.38;4982674;28;45452;-91
2023/05/06 12:55:34;;;;;;;;;0.00;0.00;;;;;24.70;50.43;-7321.47;4982851;28;46151;-91
2023/05/06 12:58:00;;;;;;;;;2.00;1.00;;;;;24.49;50.48;-7320.19;4980935;28;45465;-94
2023/05/06 13:00:25;;;;;;;;;0.50;0.50;;;;;24.62;49.52;-6302.56;4979696;28;45440;-96
2023/05/06 13:02:51;;;;;;;;;0.25;0.25;;;;;24.55;50.36;-6981.19;4981588;28;45468;-90
2023/05/06 13:05:16;;;;;;;;;0.00;0.00;;;;;24.51;50.72;-6641.50;4978014;28;47195;-92
2023/05/06 13:07:42;;;;;;;;;0.75;0.75;;;;;24.27;50.00;-5961.63;4981299;28;45485;-91
2023/05/06 13:10:08;;;;;;;;;0.00;0.00;;;;;24.19;49.83;-5622.00;4986512;28;45625;-90
2023/05/06 13:12:34;;;;;;;;;0.00;0.00;;;;;24.28;50.21;-4943.41;4978158;28;45466;-94
2023/05/06 13:14:59;;;;;;;;;0.75;0.75;;;;;24.20;50.08;-4603.78;4978791;28;45527;-94
2023/05/06 13:17:25;;;;;;;;;0.00;0.00;;;;;24.02;49.67;-4264.09;4977665;28;45439;-94
2023/05/06 13:19:52;;;;;;;;;1.50;0.00;;;;;23.90;50.04;-3924.59;4979214;28;45406;-89
2023/05/06 13:22:17;;;;;;;;;1.50;0.00;;;;;24.01;50.07;-3585.25;4977618;28;46047;-93
2023/05/06 13:24:43;;;;;;;;;1.00;1.00;;;;;23.93;50.07;-3585.22;4976959;28;45331;-95
2023/05/06 13:27:08;;;;;;;;;0.00;0.00;;;;;23.90;50.71;-3924.59;4980187;28;45735;-95
2023/05/06 13:29:33;;;;;;;;;0.50;0.00;;;;;23.71;50.28;-3585.19;4982643;28;45545;-95
2023/05/06 13:31:59;;;;;;;;;1.00;0.00;;;;;23.83;50.53;-3585.22;4983636;28;45428;-92
2023/05/06 13:34:25;;;;;;;;;0.00;0.00;;;;;23.79;50.57;-3245.88;4979721;28;47412;-82
2023/05/06 13:36:53;;;;;;;;;0.00;0.00;;;;;23.71;50.26;-3245.88;4982600;28;45846;-82
2023/05/06 13:39:18;;;;;;;;;0.75;0.75;;;;;23.64;50.92;-3245.91;4987083;28;45845;-82
2023/05/06 13:41:48;;;;;;;;;1.00;1.00;;;;;23.73;50.43;-3245.88;4979790;28;45302;-82
2023/05/06 13:44:14;;;;;;;;;0.00;0.00;;;;;23.59;51.08;-3585.16;4994807;28;46291;-83
2023/05/06 13:46:40;;;;;;;;;0.75;0.75;;;;;23.73;50.75;-3245.88;4991161;28;45685;-82
2023/05/06 13:49:05;;;;;;;;;2.00;0.75;;;;;23.66;50.59;-3245.91;4989478;28;45473;-82
2023/05/06 13:51:32;;;;;;;;;1.00;1.00;;;;;23.49;50.79;-3245.97;4977316;28;45721;-81
2023/05/06 13:53:57;;;;;;;;;1.00;1.00;;;;;23.60;51.11;-3245.91;4977568;28;47305;-83
2023/05/06 13:56:23;;;;;;;;;0.00;0.00;;;;;23.54;51.19;-3585.16;4983901;28;45531;-85
2023/05/06 13:58:48;;;;;;;;;2.00;1.00;;;;;23.48;51.87;-4263.38;4983118;28;45624;-84
2023/05/06 14:01:13;;;;;;;;;0.00;0.00;;;;;23.28;52.67;-5957.72;4990615;28;45520;-87
2023/05/06 14:03:39;;;;;;;;;1.00;1.00;;;;;23.39;54.15;-7991.00;4988863;28;48685;-82
2023/05/06 14:06:04;;;;;;;;;0.50;0.00;;;;;23.33;53.76;-7990.59;4979581;28;45681;-82
2023/05/06 14:08:31;;;;;;;;;0.50;0.50;;;;;23.16;54.27;-8327.91;4980691;28;45579;-81
2023/05/06 14:10:56;;;;;;;;;0.50;0.50;;;;;23.23;54.30;-9005.63;4994633;28;45649;-82
2023/05/06 14:13:22;;;;;;;;;1.50;0.00;;;;;23.17;54.64;-9343.63;4975472;28;45790;-81
2023/05/06 14:15:47;;;;;;;;;4.67;4.67;;;;;23.25;54.62;-9682.84;4974514;28;45439;-81
2023/05/06 14:18:12;;;;;;;;;3.33;3.33;;;;;23.24;55.06;-10359.66;4975491;28;45534;-81
2023/05/06 14:20:38;;;;;;;;;0.00;0.00;;;;;23.21;54.73;-10359.28;4971857;28;46723;-81
2023/05/06 14:23:04;;;;;;;;;0.25;0.25;;;;;23.21;54.48;-10359.34;4974601;28;45372;-81
2023/05/06 14:25:30;;;;;;;;;2.00;1.75;;;;;23.16;55.05;-10697.16;4980714;28;45546;-82
2023/05/06 14:27:55;;;;;;;;;1.75;0.75;;;;;22.97;55.25;-10695.03;4992590;28;45444;-81
2023/05/06 14:30:21;;;;;;;;;4.00;1.00;;;;;23.13;54.47;-10696.78;4986342;28;49915;-81
2023/05/06 14:32:46;;;;;;;;;0.25;0.25;;;;;23.10;54.82;-10696.44;4993175;28;46336;-81
2023/05/06 14:35:11;;;;;;;;;0.75;0.75;;;;;23.06;54.69;-10357.66;4985090;28;45522;-81
2023/05/06 14:37:37;;;;;;;;;1.00;1.00;;;;;23.18;54.47;-10359.00;4961921;28;45604;-81
2023/05/06 14:40:04;;;;;;;;;0.25;0.25;;;;;23.21;54.08;-10359.34;4986548;28;45446;-81
2023/05/06 14:42:29;;;;;;;;;2.00;0.00;;;;;23.24;54.77;-10359.63;4994775;28;46834;-81
2023/05/06 14:44:55;;;;;;;;;2.00;1.00;;;;;23.05;54.58;-10695.84;4992201;28;45479;-80
2023/05/06 14:47:20;;;;;;;;;1.00;1.00;;;;;23.22;54.07;-10697.84;4975304;28;45675;-81
2023/05/06 14:49:45;;;;;;;;;1.00;1.00;;;;;23.30;54.26;-10698.78;4974543;28;45425;-80
2023/05/06 14:52:11;;;;;;;;;1.00;1.00;;;;;23.22;54.84;-10697.78;4974405;28;55805;-80
2023/05/06 14:54:40;;;;;;;;;0.50;0.50;;;;;23.24;54.38;-10698.03;4979439;28;45459;-81
2023/05/06 14:57:09;;;;;;;;;2.00;1.00;;;;;23.17;54.10;-11035.59;4990548;28;45709;-81
2023/05/06 14:59:35;;;;;;;;;1.00;1.00;;;;;23.32;54.00;-10699.03;4977110;28;45490;-82
2023/05/06 15:02:00;;;;;;;;;0.00;0.00;;;;;23.29;54.29;-10360.22;4982436;28;45948;-81
2023/05/06 15:04:26;;;;;;;;;0.00;0.00;;;;;23.25;53.78;-10698.22;4998007;28;45426;-81
2023/05/06 15:06:51;;;;;;;;;0.00;0.00;;;;;23.32;54.52;-10699.03;4997939;28;45325;-81
2023/05/06 15:09:17;;;;;;;;;0.00;0.00;;;;;23.41;54.39;-11038.44;4997129;28;45531;-81
2023/05/06 15:11:43;;;;;;;;;1.00;1.00;;;;;23.17;54.89;-11035.59;4981858;28;46100;-81
2023/05/06 15:14:08;;;;;;;;;0.75;0.75;;;;;23.28;54.68;-11036.91;4979778;28;45444;-81
2023/05/06 15:16:33;;;;;;;;;0.00;0.00;;;;;23.34;55.37;-11376.06;4995172;28;45747;-81
2023/05/06 15:18:59;;;;;;;;;2.25;0.00;;;;;23.27;54.99;-11375.22;4980445;28;45666;-81
2023/05/06 15:21:24;;;;;;;;;1.00;1.00;;;;;23.20;55.46;-11374.25;4997889;28;47197;-81
2023/05/06 15:23:49;;;;;;;;;0.00;0.00;;;;;23.32;55.28;-11375.78;4997916;28;45480;-80